sensor_id;sensor_type;location;lat;lon;timestamp;pressure;altitude;pressure_sealevel;temperature;humidity
62800;BME280;48842;51.046;13.796;2023-04-06T00:00:35;100882.97;;;5.93;50.58
62800;BME280;48842;51.046;13.796;2023-04-06T00:03:01;100879.47;;;5.91;50.66
62800;BME280;48842;51.046;13.796;2023-04-06T00:05:26;100884.53;;;5.88;50.64
62800;BME280;48842;51.046;13.796;2023-04-06T00:07:52;100881.00;;;5.86;50.68
62800;BME280;48842;51.046;13.796;2023-04-06T00:10:19;100886.22;;;5.86;50.87
62800;BME280;48842;51.046;13.796;2023-04-06T00:12:44;100887.09;;;5.87;50.89
62800;BME280;48842;51.046;13.796;2023-04-06T00:15:10;100884.44;;;5.85;50.86
62800;BME280;48842;51.046;13.796;2023-04-06T00:17:35;100885.25;;;5.83;50.91
62800;BME280;48842;51.046;13.796;2023-04-06T00:20:00;100887.72;;;5.80;51.00
62800;BME280;48842;51.046;13.796;2023-04-06T00:22:25;100885.06;;;5.78;51.11
62800;BME280;48842;51.046;13.796;2023-04-06T00:24:51;100884.16;;;5.76;51.02
62800;BME280;48842;51.046;13.796;2023-04-06T00:27:16;100886.66;;;5.73;50.97
62800;BME280;48842;51.046;13.796;2023-04-06T00:29:41;100888.38;;;5.72;51.13
62800;BME280;48842;51.046;13.796;2023-04-06T00:32:06;100879.63;;;5.70;51.39
62800;BME280;48842;51.046;13.796;2023-04-06T00:34:32;100883.97;;;5.70;51.34
62800;BME280;48842;51.046;13.796;2023-04-06T00:36:57;100886.50;;;5.68;51.58
62800;BME280;48842;51.046;13.796;2023-04-06T00:39:22;100884.72;;;5.67;51.58
62800;BME280;48842;51.046;13.796;2023-04-06T00:41:51;100878.66;;;5.67;51.64
62800;BME280;48842;51.046;13.796;2023-04-06T00:44:16;100873.41;;;5.65;51.73
62800;BME280;48842;51.046;13.796;2023-04-06T00:46:41;100871.69;;;5.66;51.84
62800;BME280;48842;51.046;13.796;2023-04-06T00:49:07;100882.91;;;5.65;52.10
62800;BME280;48842;51.046;13.796;2023-04-06T00:51:32;100882.03;;;5.64;51.98
62800;BME280;48842;51.046;13.796;2023-04-06T00:53:57;100882.88;;;5.63;51.98
62800;BME280;48842;51.046;13.796;2023-04-06T00:56:22;100883.63;;;5.60;51.93
62800;BME280;48842;51.046;13.796;2023-04-06T00:58:49;100878.38;;;5.59;52.20
62800;BME280;48842;51.046;13.796;2023-04-06T01:01:14;100887.03;;;5.58;52.22
62800;BME280;48842;51.046;13.796;2023-04-06T01:03:40;100887.00;;;5.56;52.18
62800;BME280;48842;51.046;13.796;2023-04-06T01:06:07;100889.59;;;5.56;52.22
62800;BME280;48842;51.046;13.796;2023-04-06T01:08:32;100874.06;;;5.58;52.28
62800;BME280;48842;51.046;13.796;2023-04-06T01:10:59;100874.06;;;5.58;51.94
62800;BME280;48842;51.046;13.796;2023-04-06T01:13:26;100868.81;;;5.56;52.17
62800;BME280;48842;51.046;13.796;2023-04-06T01:15:51;100879.16;;;5.55;51.97
62800;BME280;48842;51.046;13.796;2023-04-06T01:18:16;100880.78;;;5.53;52.13
62800;BME280;48842;51.046;13.796;2023-04-06T01:20:41;100880.78;;;5.53;51.97
62800;BME280;48842;51.046;13.796;2023-04-06T01:23:07;100882.47;;;5.51;52.36
62800;BME280;48842;51.046;13.796;2023-04-06T01:25:32;100878.91;;;5.49;52.18
62800;BME280;48842;51.046;13.796;2023-04-06T01:27:57;100876.31;;;5.49;52.36
62800;BME280;48842;51.046;13.796;2023-04-06T01:30:22;100878.00;;;5.47;52.45
62800;BME280;48842;51.046;13.796;2023-04-06T01:32:48;100873.63;;;5.46;52.69
62800;BME280;48842;51.046;13.796;2023-04-06T01:35:13;100875.31;;;5.44;52.26
62800;BME280;48842;51.046;13.796;2023-04-06T01:37:38;100879.50;;;5.40;52.43
62800;BME280;48842;51.046;13.796;2023-04-06T01:40:04;100871.59;;;5.37;52.27
62800;BME280;48842;51.046;13.796;2023-04-06T01:42:29;100871.56;;;5.35;52.48
62800;BME280;48842;51.046;13.796;2023-04-06T01:44:55;100871.56;;;5.35;52.41
62800;BME280;48842;51.046;13.796;2023-04-06T01:47:20;100874.97;;;5.34;52.44
62800;BME280;48842;51.046;13.796;2023-04-06T01:49:45;100874.09;;;5.34;52.57
62800;BME280;48842;51.046;13.796;2023-04-06T01:52:11;100874.00;;;5.31;52.66
62800;BME280;48842;51.046;13.796;2023-04-06T01:54:36;100872.22;;;5.30;52.74
62800;BME280;48842;51.046;13.796;2023-04-06T01:57:01;100875.69;;;5.29;52.56
62800;BME280;48842;51.046;13.796;2023-04-06T01:59:26;100873.84;;;5.26;52.55
62800;BME280;48842;51.046;13.796;2023-04-06T02:01:52;100866.81;;;5.23;52.71
62800;BME280;48842;51.046;13.796;2023-04-06T02:04:17;100872.78;;;5.21;52.89
62800;BME280;48842;51.046;13.796;2023-04-06T02:06:42;100878.78;;;5.18;52.76
62800;BME280;48842;51.046;13.796;2023-04-06T02:09:07;100869.13;;;5.14;52.57
62800;BME280;48842;51.046;13.796;2023-04-06T02:11:33;100863.81;;;5.11;52.58
62800;BME280;48842;51.046;13.796;2023-04-06T02:13:58;100870.59;;;5.07;52.72
62800;BME280;48842;51.046;13.796;2023-04-06T02:16:25;100867.09;;;5.05;52.80
62800;BME280;48842;51.046;13.796;2023-04-06T02:18:50;100863.53;;;5.03;52.94
62800;BME280;48842;51.046;13.796;2023-04-06T02:21:16;100859.97;;;5.00;52.87
62800;BME280;48842;51.046;13.796;2023-04-06T02:23:45;100864.16;;;4.96;53.14
62800;BME280;48842;51.046;13.796;2023-04-06T02:26:10;100868.41;;;4.94;53.03
62800;BME280;48842;51.046;13.796;2023-04-06T02:28:35;100857.91;;;4.91;53.20
62800;BME280;48842;51.046;13.796;2023-04-06T02:31:01;100854.38;;;4.89;53.15
62800;BME280;48842;51.046;13.796;2023-04-06T02:33:26;100862.97;;;4.86;53.41
62800;BME280;48842;51.046;13.796;2023-04-06T02:35:51;100852.38;;;4.82;52.77
62800;BME280;48842;51.046;13.796;2023-04-06T02:38:16;100863.56;;;4.79;53.10
62800;BME280;48842;51.046;13.796;2023-04-06T02:40:42;100859.13;;;4.77;53.46
62800;BME280;48842;51.046;13.796;2023-04-06T02:43:07;100865.16;;;4.76;53.68
62800;BME280;48842;51.046;13.796;2023-04-06T02:45:32;100857.31;;;4.74;53.29
62800;BME280;48842;51.046;13.796;2023-04-06T02:47:57;100859.03;;;4.74;53.47
62800;BME280;48842;51.046;13.796;2023-04-06T02:50:22;100859.78;;;4.71;53.35
62800;BME280;48842;51.046;13.796;2023-04-06T02:52:48;100860.56;;;4.68;53.71
62800;BME280;48842;51.046;13.796;2023-04-06T02:55:13;100857.03;;;4.66;53.84
62800;BME280;48842;51.046;13.796;2023-04-06T02:57:38;100856.94;;;4.63;53.50
62800;BME280;48842;51.046;13.796;2023-04-06T03:00:04;100860.34;;;4.62;54.07
62800;BME280;48842;51.046;13.796;2023-04-06T03:02:29;100856.81;;;4.60;53.62
62800;BME280;48842;51.046;13.796;2023-04-06T03:04:55;100863.66;;;4.58;54.05
62800;BME280;48842;51.046;13.796;2023-04-06T03:07:20;100860.13;;;4.56;54.15
62800;BME280;48842;51.046;13.796;2023-04-06T03:09:45;100863.53;;;4.55;54.27
62800;BME280;48842;51.046;13.796;2023-04-06T03:12:10;100872.03;;;4.51;53.96
62800;BME280;48842;51.046;13.796;2023-04-06T03:14:36;100867.69;;;4.50;53.80
62800;BME280;48842;51.046;13.796;2023-04-06T03:17:01;100865.91;;;4.49;54.37
62800;BME280;48842;51.046;13.796;2023-04-06T03:19:27;100871.91;;;4.48;53.83
62800;BME280;48842;51.046;13.796;2023-04-06T03:21:52;100868.44;;;4.47;54.28
62800;BME280;48842;51.046;13.796;2023-04-06T03:24:17;100862.31;;;4.45;54.34
62800;BME280;48842;51.046;13.796;2023-04-06T03:26:43;100871.81;;;4.45;54.31
62800;BME280;48842;51.046;13.796;2023-04-06T03:29:08;100865.69;;;4.43;54.64
62800;BME280;48842;51.046;13.796;2023-04-06T03:31:33;100863.91;;;4.42;54.29
62800;BME280;48842;51.046;13.796;2023-04-06T03:33:58;100874.25;;;4.40;54.35
62800;BME280;48842;51.046;13.796;2023-04-06T03:36:24;100875.00;;;4.37;54.29
62800;BME280;48842;51.046;13.796;2023-04-06T03:38:51;100872.28;;;4.34;54.74
62800;BME280;48842;51.046;13.796;2023-04-06T03:41:18;100877.41;;;4.33;54.32
62800;BME280;48842;51.046;13.796;2023-04-06T03:43:43;100885.16;;;4.31;54.66
62800;BME280;48842;51.046;13.796;2023-04-06T03:46:08;100882.50;;;4.30;54.33
62800;BME280;48842;51.046;13.796;2023-04-06T03:48:34;100885.03;;;4.28;54.75
62800;BME280;48842;51.046;13.796;2023-04-06T03:50:59;100884.91;;;4.25;54.34
62800;BME280;48842;51.046;13.796;2023-04-06T03:53:25;100889.19;;;4.25;54.55
62800;BME280;48842;51.046;13.796;2023-04-06T03:55:50;100899.50;;;4.23;54.55
62800;BME280;48842;51.046;13.796;2023-04-06T03:58:15;100898.59;;;4.21;54.52
62800;BME280;48842;51.046;13.796;2023-04-06T04:00:41;100895.03;;;4.19;54.50
62800;BME280;48842;51.046;13.796;2023-04-06T04:03:06;100898.41;;;4.16;54.24
62800;BME280;48842;51.046;13.796;2023-04-06T04:05:31;100896.63;;;4.15;54.66
62800;BME280;48842;51.046;13.796;2023-04-06T04:07:56;100902.63;;;4.14;54.62
62800;BME280;48842;51.046;13.796;2023-04-06T04:10:21;100899.97;;;4.13;54.59
62800;BME280;48842;51.046;13.796;2023-04-06T04:12:47;100899.97;;;4.13;55.22
62800;BME280;48842;51.046;13.796;2023-04-06T04:15:12;100896.47;;;4.11;54.72
62800;BME280;48842;51.046;13.796;2023-04-06T04:17:37;100899.00;;;4.09;54.58
62800;BME280;48842;51.046;13.796;2023-04-06T04:20:03;100899.75;;;4.07;54.87
62800;BME280;48842;51.046;13.796;2023-04-06T04:22:28;100901.47;;;4.06;54.60
62800;BME280;48842;51.046;13.796;2023-04-06T04:24:53;100898.88;;;4.06;54.56
62800;BME280;48842;51.046;13.796;2023-04-06T04:27:19;100903.16;;;4.06;54.64
62800;BME280;48842;51.046;13.796;2023-04-06T04:29:44;100901.41;;;4.05;54.91
62800;BME280;48842;51.046;13.796;2023-04-06T04:32:10;100906.53;;;4.03;55.01
62800;BME280;48842;51.046;13.796;2023-04-06T04:34:35;100903.03;;;4.02;54.82
62800;BME280;48842;51.046;13.796;2023-04-06T04:37:00;100903.03;;;4.02;55.11
62800;BME280;48842;51.046;13.796;2023-04-06T04:39:25;100898.66;;;4.01;55.17
62800;BME280;48842;51.046;13.796;2023-04-06T04:41:51;100908.97;;;4.00;54.67
62800;BME280;48842;51.046;13.796;2023-04-06T04:44:16;100897.66;;;3.98;55.25
62800;BME280;48842;51.046;13.796;2023-04-06T04:46:41;100902.03;;;3.99;55.13
62800;BME280;48842;51.046;13.796;2023-04-06T04:49:07;100895.97;;;3.98;55.35
62800;BME280;48842;51.046;13.796;2023-04-06T04:51:32;100895.97;;;3.98;55.18
62800;BME280;48842;51.046;13.796;2023-04-06T04:53:57;100895.09;;;3.98;55.42
62800;BME280;48842;51.046;13.796;2023-04-06T04:56:23;100896.81;;;3.97;55.33
62800;BME280;48842;51.046;13.796;2023-04-06T04:58:48;100896.81;;;3.97;55.13
62800;BME280;48842;51.046;13.796;2023-04-06T05:01:13;100899.41;;;3.97;55.56
62800;BME280;48842;51.046;13.796;2023-04-06T05:03:39;100895.97;;;3.98;55.13
62800;BME280;48842;51.046;13.796;2023-04-06T05:06:05;100894.31;;;4.00;55.22
62800;BME280;48842;51.046;13.796;2023-04-06T05:08:31;100899.50;;;4.00;55.73
62800;BME280;48842;51.046;13.796;2023-04-06T05:10:56;100903.03;;;4.02;54.99
62800;BME280;48842;51.046;13.796;2023-04-06T05:13:21;100904.81;;;4.04;55.46
62800;BME280;48842;51.046;13.796;2023-04-06T05:15:47;100916.97;;;4.05;55.07
62800;BME280;48842;51.046;13.796;2023-04-06T05:18:12;100911.78;;;4.05;55.07
62800;BME280;48842;51.046;13.796;2023-04-06T05:20:38;100910.75;;;4.01;55.42
62800;BME280;48842;51.046;13.796;2023-04-06T05:23:03;100917.72;;;4.02;55.60
62800;BME280;48842;51.046;13.796;2023-04-06T05:25:30;100924.53;;;4.00;55.04
62800;BME280;48842;51.046;13.796;2023-04-06T05:27:55;100924.41;;;3.97;54.95
62800;BME280;48842;51.046;13.796;2023-04-06T05:30:20;100925.44;;;4.00;55.67
62800;BME280;48842;51.046;13.796;2023-04-06T05:32:46;100931.59;;;4.04;55.03
62800;BME280;48842;51.046;13.796;2023-04-06T05:35:11;100931.84;;;4.10;54.80
62800;BME280;48842;51.046;13.796;2023-04-06T05:37:37;100930.28;;;4.14;54.99
62800;BME280;48842;51.046;13.796;2023-04-06T05:40:03;100932.22;;;4.19;54.83
62800;BME280;48842;51.046;13.796;2023-04-06T05:42:36;100931.59;;;4.25;54.73
62800;BME280;48842;51.046;13.796;2023-04-06T05:45:01;100933.59;;;4.32;54.45
62800;BME280;48842;51.046;13.796;2023-04-06T05:47:27;100930.41;;;4.40;54.79
62800;BME280;48842;51.046;13.796;2023-04-06T05:49:52;100939.38;;;4.48;54.79
62800;BME280;48842;51.046;13.796;2023-04-06T05:52:17;100929.34;;;4.57;54.43
62800;BME280;48842;51.046;13.796;2023-04-06T05:54:42;100934.06;;;4.67;54.17
62800;BME280;48842;51.046;13.796;2023-04-06T05:57:08;100931.81;;;4.77;53.82
62800;BME280;48842;51.046;13.796;2023-04-06T05:59:33;100924.25;;;4.83;53.62
62800;BME280;48842;51.046;13.796;2023-04-06T06:01:58;100920.97;;;4.88;53.39
62800;BME280;48842;51.046;13.796;2023-04-06T06:04:23;100924.66;;;4.94;53.28
62800;BME280;48842;51.046;13.796;2023-04-06T06:06:49;100915.34;;;5.00;53.28
62800;BME280;48842;51.046;13.796;2023-04-06T06:09:14;100919.00;;;5.05;53.51
62800;BME280;48842;51.046;13.796;2023-04-06T06:11:40;100927.00;;;5.12;53.34
62800;BME280;48842;51.046;13.796;2023-04-06T06:14:06;100921.91;;;5.15;52.95
62800;BME280;48842;51.046;13.796;2023-04-06T06:16:31;100923.03;;;5.21;53.22
62800;BME280;48842;51.046;13.796;2023-04-06T06:18:56;100913.72;;;5.28;53.16
62800;BME280;48842;51.046;13.796;2023-04-06T06:21:21;100913.06;;;5.34;53.08
62800;BME280;48842;51.046;13.796;2023-04-06T06:23:47;100917.63;;;5.41;52.93
62800;BME280;48842;51.046;13.796;2023-04-06T06:26:14;100914.38;;;5.47;52.83
62800;BME280;48842;51.046;13.796;2023-04-06T06:28:39;100911.16;;;5.54;52.69
62800;BME280;48842;51.046;13.796;2023-04-06T06:31:04;100913.13;;;5.61;52.34
62800;BME280;48842;51.046;13.796;2023-04-06T06:33:30;100911.53;;;5.66;52.11
62800;BME280;48842;51.046;13.796;2023-04-06T06:35:55;100911.78;;;5.72;51.82
62800;BME280;48842;51.046;13.796;2023-04-06T06:38:20;100912.78;;;5.77;51.83
62800;BME280;48842;51.046;13.796;2023-04-06T06:40:46;100914.66;;;5.82;51.44
62800;BME280;48842;51.046;13.796;2023-04-06T06:43:11;100914.84;;;5.88;51.76
62800;BME280;48842;51.046;13.796;2023-04-06T06:45:36;100920.25;;;5.94;51.54
62800;BME280;48842;51.046;13.796;2023-04-06T06:48:02;100917.00;;;6.00;51.35
62800;BME280;48842;51.046;13.796;2023-04-06T06:50:27;100913.72;;;6.05;51.28
62800;BME280;48842;51.046;13.796;2023-04-06T06:52:52;100920.00;;;6.12;51.21
62800;BME280;48842;51.046;13.796;2023-04-06T06:55:17;100916.72;;;6.18;51.15
62800;BME280;48842;51.046;13.796;2023-04-06T06:57:44;100915.16;;;6.24;50.91
62800;BME280;48842;51.046;13.796;2023-04-06T07:00:12;100924.88;;;6.30;50.73
62800;BME280;48842;51.046;13.796;2023-04-06T07:02:38;100919.00;;;6.36;50.52
62800;BME280;48842;51.046;13.796;2023-04-06T07:05:04;100917.41;;;6.41;50.38
62800;BME280;48842;51.046;13.796;2023-04-06T07:07:31;100916.69;;;6.46;50.19
62800;BME280;48842;51.046;13.796;2023-04-06T07:09:56;100917.00;;;6.56;50.22
62800;BME280;48842;51.046;13.796;2023-04-06T07:12:21;100923.25;;;6.62;49.76
62800;BME280;48842;51.046;13.796;2023-04-06T07:14:47;100920.00;;;6.70;49.73
62800;BME280;48842;51.046;13.796;2023-04-06T07:17:12;100914.09;;;6.75;49.64
62800;BME280;48842;51.046;13.796;2023-04-06T07:19:38;100916.81;;;6.80;49.46
62800;BME280;48842;51.046;13.796;2023-04-06T07:22:03;100910.91;;;6.86;49.18
62800;BME280;48842;51.046;13.796;2023-04-06T07:24:28;100916.28;;;6.92;49.24
62800;BME280;48842;51.046;13.796;2023-04-06T07:26:54;100924.31;;;6.99;49.13
62800;BME280;48842;51.046;13.796;2023-04-06T07:29:20;100911.50;;;7.07;48.93
62800;BME280;48842;51.046;13.796;2023-04-06T07:31:46;100909.03;;;7.12;48.55
62800;BME280;48842;51.046;13.796;2023-04-06T07:34:11;100902.22;;;7.17;48.71
62800;BME280;48842;51.046;13.796;2023-04-06T07:36:36;100907.63;;;7.25;48.41
62800;BME280;48842;51.046;13.796;2023-04-06T07:39:02;100903.53;;;7.33;48.53
62800;BME280;48842;51.046;13.796;2023-04-06T07:41:27;100896.69;;;7.38;48.06
62800;BME280;48842;51.046;13.796;2023-04-06T07:43:52;100902.06;;;7.44;47.98
62800;BME280;48842;51.046;13.796;2023-04-06T07:46:17;100900.50;;;7.51;48.12
62800;BME280;48842;51.046;13.796;2023-04-06T07:48:43;100903.28;;;7.59;47.76
62800;BME280;48842;51.046;13.796;2023-04-06T07:51:08;100898.25;;;7.66;47.68
62800;BME280;48842;51.046;13.796;2023-04-06T07:53:35;100899.28;;;7.72;47.04
62800;BME280;48842;51.046;13.796;2023-04-06T07:56:00;100899.44;;;7.79;47.00
62800;BME280;48842;51.046;13.796;2023-04-06T07:58:26;100901.28;;;7.83;46.40
62800;BME280;48842;51.046;13.796;2023-04-06T08:00:51;100903.13;;;7.88;46.85
62800;BME280;48842;51.046;13.796;2023-04-06T08:03:16;100897.22;;;7.95;46.86
62800;BME280;48842;51.046;13.796;2023-04-06T08:05:42;100900.81;;;8.00;46.21
62800;BME280;48842;51.046;13.796;2023-04-06T08:08:07;100901.84;;;8.07;46.16
62800;BME280;48842;51.046;13.796;2023-04-06T08:10:33;100901.03;;;8.09;45.53
62800;BME280;48842;51.046;13.796;2023-04-06T08:12:59;100898.56;;;8.15;45.75
62800;BME280;48842;51.046;13.796;2023-04-06T08:15:24;100906.56;;;8.23;45.39
62800;BME280;48842;51.046;13.796;2023-04-06T08:17:50;100905.06;;;8.33;45.50
62800;BME280;48842;51.046;13.796;2023-04-06T08:20:15;100902.63;;;8.42;45.31
62800;BME280;48842;51.046;13.796;2023-04-06T08:22:40;100892.34;;;8.48;45.21
62800;BME280;48842;51.046;13.796;2023-04-06T08:25:06;100894.25;;;8.55;44.61
62800;BME280;48842;51.046;13.796;2023-04-06T08:27:31;100890.94;;;8.64;44.33
62800;BME280;48842;51.046;13.796;2023-04-06T08:29:56;100894.63;;;8.74;44.01
62800;BME280;48842;51.046;13.796;2023-04-06T08:32:21;100893.06;;;8.82;43.45
62800;BME280;48842;51.046;13.796;2023-04-06T08:34:47;100889.72;;;8.89;43.17
62800;BME280;48842;51.046;13.796;2023-04-06T08:37:12;100885.50;;;8.96;42.24
62800;BME280;48842;51.046;13.796;2023-04-06T08:39:37;100879.50;;;9.02;41.53
62800;BME280;48842;51.046;13.796;2023-04-06T08:42:03;100885.75;;;9.08;41.55
62800;BME280;48842;51.046;13.796;2023-04-06T08:44:29;100889.34;;;9.15;41.42
62800;BME280;48842;51.046;13.796;2023-04-06T08:46:55;100881.63;;;9.21;40.93
62800;BME280;48842;51.046;13.796;2023-04-06T08:49:20;100878.25;;;9.29;40.78
62800;BME280;48842;51.046;13.796;2023-04-06T08:51:46;100881.00;;;9.35;40.27
62800;BME280;48842;51.046;13.796;2023-04-06T08:54:12;100876.69;;;9.38;40.34
62800;BME280;48842;51.046;13.796;2023-04-06T08:56:38;100878.50;;;9.42;39.93
62800;BME280;48842;51.046;13.796;2023-04-06T08:59:04;100879.50;;;9.49;39.53
62800;BME280;48842;51.046;13.796;2023-04-06T09:01:30;100872.59;;;9.54;39.58
62800;BME280;48842;51.046;13.796;2023-04-06T09:03:58;100875.31;;;9.60;39.42
62800;BME280;48842;51.046;13.796;2023-04-06T09:06:26;100873.66;;;9.66;38.40
62800;BME280;48842;51.046;13.796;2023-04-06T09:08:52;100876.31;;;9.69;37.62
62800;BME280;48842;51.046;13.796;2023-04-06T09:11:17;100863.28;;;9.72;37.23
62800;BME280;48842;51.046;13.796;2023-04-06T09:13:49;100874.63;;;9.72;36.65
62800;BME280;48842;51.046;13.796;2023-04-06T09:16:14;100873.81;;;9.75;36.61
62800;BME280;48842;51.046;13.796;2023-04-06T09:18:40;100868.63;;;9.78;37.02
62800;BME280;48842;51.046;13.796;2023-04-06T09:21:07;100868.50;;;9.70;34.74
62800;BME280;48842;51.046;13.796;2023-04-06T09:23:33;100868.53;;;9.73;35.13
62800;BME280;48842;51.046;13.796;2023-04-06T09:28:44;100864.38;;;9.85;35.36
62800;BME280;48842;51.046;13.796;2023-04-06T09:31:10;100863.63;;;9.92;35.68
62800;BME280;48842;51.046;13.796;2023-04-06T09:33:40;100854.13;;;10.00;35.21
62800;BME280;48842;51.046;13.796;2023-04-06T09:36:06;100852.44;;;10.04;34.54
62800;BME280;48842;51.046;13.796;2023-04-06T09:38:32;100854.22;;;10.05;34.38
62800;BME280;48842;51.046;13.796;2023-04-06T09:40:57;100841.16;;;10.06;34.46
62800;BME280;48842;51.046;13.796;2023-04-06T09:43:29;100842.06;;;10.11;34.25
62800;BME280;48842;51.046;13.796;2023-04-06T09:45:55;100840.44;;;10.18;34.48
62800;BME280;48842;51.046;13.796;2023-04-06T09:48:21;100836.13;;;10.23;33.96
62800;BME280;48842;51.046;13.796;2023-04-06T09:50:53;100838.84;;;10.29;33.70
62800;BME280;48842;51.046;13.796;2023-04-06T09:53:25;100838.94;;;10.36;33.96
62800;BME280;48842;51.046;13.796;2023-04-06T09:55:52;100833.81;;;10.43;33.74
62800;BME280;48842;51.046;13.796;2023-04-06T09:58:22;100843.47;;;10.49;33.50
62800;BME280;48842;51.046;13.796;2023-04-06T10:00:58;100833.09;;;10.57;32.94
62800;BME280;48842;51.046;13.796;2023-04-06T10:03:40;100833.13;;;10.61;32.38
62800;BME280;48842;51.046;13.796;2023-04-06T10:06:13;100832.34;;;10.67;32.16
62800;BME280;48842;51.046;13.796;2023-04-06T10:08:40;100828.81;;;10.63;30.32
62800;BME280;48842;51.046;13.796;2023-04-06T10:11:06;100828.84;;;10.67;29.77
62800;BME280;48842;51.046;13.796;2023-04-06T10:13:32;100823.63;;;10.70;29.09
62800;BME280;48842;51.046;13.796;2023-04-06T10:15:59;100828.06;;;10.74;29.76
62800;BME280;48842;51.046;13.796;2023-04-06T10:18:25;100822.03;;;10.84;29.44
62800;BME280;48842;51.046;13.796;2023-04-06T10:20:57;100828.28;;;10.95;29.70
62800;BME280;48842;51.046;13.796;2023-04-06T10:23:33;100827.50;;;11.04;28.35
62800;BME280;48842;51.046;13.796;2023-04-06T10:26:01;100825.81;;;11.12;28.74
62800;BME280;48842;51.046;13.796;2023-04-06T10:28:31;100810.22;;;11.26;28.66
62800;BME280;48842;51.046;13.796;2023-04-06T10:30:59;100819.94;;;11.37;28.23
62800;BME280;48842;51.046;13.796;2023-04-06T10:33:24;100819.13;;;11.44;28.34
62800;BME280;48842;51.046;13.796;2023-04-06T10:35:50;100812.94;;;11.37;27.97
62800;BME280;48842;51.046;13.796;2023-04-06T10:38:15;100807.66;;;11.32;27.70
62800;BME280;48842;51.046;13.796;2023-04-06T10:40:45;100812.88;;;11.29;28.05
62800;BME280;48842;51.046;13.796;2023-04-06T10:43:22;100809.25;;;11.16;27.38
62800;BME280;48842;51.046;13.796;2023-04-06T10:45:55;100812.69;;;11.09;27.93
62800;BME280;48842;51.046;13.796;2023-04-06T10:48:21;100818.66;;;10.94;27.63
62800;BME280;48842;51.046;13.796;2023-04-06T10:50:53;100822.13;;;10.92;27.98
62800;BME280;48842;51.046;13.796;2023-04-06T10:53:22;100816.88;;;10.93;27.62
62800;BME280;48842;51.046;13.796;2023-04-06T10:55:50;100807.31;;;10.95;27.87
62800;BME280;48842;51.046;13.796;2023-04-06T10:58:16;100810.84;;;10.99;28.19
62800;BME280;48842;51.046;13.796;2023-04-06T11:00:45;100807.44;;;11.11;28.27
62800;BME280;48842;51.046;13.796;2023-04-06T11:03:11;100800.59;;;11.25;28.50
62800;BME280;48842;51.046;13.796;2023-04-06T11:05:36;100804.22;;;11.43;28.46
62800;BME280;48842;51.046;13.796;2023-04-06T11:08:01;100797.34;;;11.56;28.75
62800;BME280;48842;51.046;13.796;2023-04-06T11:10:26;100793.94;;;11.70;28.70
62800;BME280;48842;51.046;13.796;2023-04-06T11:12:55;100781.78;;;11.88;27.70
62800;BME280;48842;51.046;13.796;2023-04-06T11:15:21;100786.28;;;12.03;27.86
62800;BME280;48842;51.046;13.796;2023-04-06T11:17:46;100788.97;;;12.08;27.63
62800;BME280;48842;51.046;13.796;2023-04-06T11:20:11;100776.72;;;12.13;27.93
62800;BME280;48842;51.046;13.796;2023-04-06T11:22:48;100771.41;;;11.97;26.26
62800;BME280;48842;51.046;13.796;2023-04-06T11:25:14;100776.66;;;11.97;27.25
62800;BME280;48842;51.046;13.796;2023-04-06T11:27:39;100777.50;;;11.96;27.37
62800;BME280;48842;51.046;13.796;2023-04-06T11:30:05;100781.00;;;11.95;27.19
62800;BME280;48842;51.046;13.796;2023-04-06T11:32:41;100771.34;;;11.94;27.30
62800;BME280;48842;51.046;13.796;2023-04-06T11:35:10;100773.97;;;11.94;27.22
62800;BME280;48842;51.046;13.796;2023-04-06T11:37:36;100775.75;;;12.00;27.16
62800;BME280;48842;51.046;13.796;2023-04-06T11:40:01;100778.38;;;12.00;26.75
62800;BME280;48842;51.046;13.796;2023-04-06T11:42:28;100774.91;;;12.01;26.61
62800;BME280;48842;51.046;13.796;2023-04-06T11:44:55;100773.16;;;12.04;26.84
62800;BME280;48842;51.046;13.796;2023-04-06T11:47:28;100771.41;;;11.99;25.97
62800;BME280;48842;51.046;13.796;2023-04-06T11:49:53;100773.16;;;12.04;26.83
62800;BME280;48842;51.046;13.796;2023-04-06T11:54:46;100761.91;;;12.29;27.14
62800;BME280;48842;51.046;13.796;2023-04-06T11:57:11;100765.44;;;12.38;26.67
62800;BME280;48842;51.046;13.796;2023-04-06T11:59:37;100755.81;;;12.40;26.37
62800;BME280;48842;51.046;13.796;2023-04-06T12:02:03;100750.56;;;12.47;26.77
62800;BME280;48842;51.046;13.796;2023-04-06T12:04:29;100752.31;;;12.51;26.60
62800;BME280;48842;51.046;13.796;2023-04-06T12:06:55;100748.84;;;12.49;25.98
62800;BME280;48842;51.046;13.796;2023-04-06T12:09:20;100747.94;;;12.48;25.83
62800;BME280;48842;51.046;13.796;2023-04-06T12:11:46;100750.56;;;12.50;26.03
62800;BME280;48842;51.046;13.796;2023-04-06T12:14:12;100746.22;;;12.50;26.34
62800;BME280;48842;51.046;13.796;2023-04-06T12:16:37;100740.09;;;12.59;26.71
62800;BME280;48842;51.046;13.796;2023-04-06T12:19:02;100734.84;;;12.68;26.62
62800;BME280;48842;51.046;13.796;2023-04-06T12:21:28;100733.97;;;12.74;26.57
62800;BME280;48842;51.046;13.796;2023-04-06T12:23:54;100729.63;;;12.81;26.57
62800;BME280;48842;51.046;13.796;2023-04-06T12:26:19;100734.88;;;12.79;25.73
62800;BME280;48842;51.046;13.796;2023-04-06T12:28:45;100730.50;;;12.73;26.13
62800;BME280;48842;51.046;13.796;2023-04-06T12:31:21;100727.88;;;12.73;26.66
62800;BME280;48842;51.046;13.796;2023-04-06T12:33:51;100722.59;;;12.83;26.39
62800;BME280;48842;51.046;13.796;2023-04-06T12:36:18;100721.72;;;12.95;26.65
62800;BME280;48842;51.046;13.796;2023-04-06T12:38:44;100717.34;;;13.04;26.92
62800;BME280;48842;51.046;13.796;2023-04-06T12:41:11;100718.25;;;13.16;26.49
62800;BME280;48842;51.046;13.796;2023-04-06T12:43:36;100715.59;;;13.23;26.27
62800;BME280;48842;51.046;13.796;2023-04-06T12:46:01;100705.91;;;13.28;26.57